METAR EFET 080220Z AUTO 22012KT CAVOK M01/M05 Q1003=
METAR EFHA 080220Z AUTO 29005KT CAVOK M01/M03 Q1022=
METAR EFHK 080220Z 29009KT CAVOK 02/M00 Q1024 NOSIG=
METAR EFIV 080220Z AUTO 22016KT CAVOK 02/M04 Q1003=
METAR EFJO 080220Z AUTO 30005KT CAVOK 00/M00 Q1016=
METAR EFJY 080220Z AUTO 29003KT 250V320 CAVOK 01/M02 Q1020=
METAR EFKE 080220Z AUTO 23007KT 200V260 CAVOK 02/M02 Q1012=
METAR EFKI 080220Z AUTO 23005KT CAVOK M02/M03 Q1016=
METAR EFKK 080220Z AUTO 22008KT CAVOK 02/M03 Q1019=
METAR EFKS 080220Z AUTO 26003KT 220V300 9999 NCD M03/M04 Q1011=
METAR EFKT 080220Z AUTO 24012KT 210V270 CAVOK 02/M04 Q1005=
METAR EFKU 080220Z AUTO 29007KT CAVOK 01/M02 Q1018=
METAR EFLA 080220Z AUTO 32005KT 280V350 CAVOK 02/00 Q1022=
METAR EFLP 080220Z AUTO 30006KT 270V330 CAVOK 03/01 Q1019=
METAR EFMA 080220Z AUTO VRB02KT CAVOK M03/M03 Q1026=
METAR EFMI 080220Z AUTO 28007KT 250V320 CAVOK 02/M00 Q1020=
METAR EFOU 080220Z AUTO 23008KT CAVOK 02/M02 Q1015=
METAR EFPO 080220Z AUTO 15003KT 120V190 CAVOK M01/M02 Q1024=
METAR EFRO 080220Z AUTO 23014KT CAVOK M01/M04 Q1009=
METAR EFSA 080220Z AUTO VRB07KT CAVOK 01/00 Q1018=
METAR EFSI 080220Z AUTO 22003KT CAVOK 00/M02 Q1021=
METAR EFTP 080220Z AUTO 23005KT CAVOK M00/M02 Q1023=
METAR EFTU 080220Z AUTO 27003KT CAVOK M00/M02 Q1025=
METAR EFUT 080220Z AUTO 30008KT 270V330 CAVOK 02/01 Q1021=
METAR EFVA 080220Z AUTO 18004KT CAVOK 01/M02 Q1020=
ILHF 080220Z AUTO 30007KT CAVOK 03/00 Q1024=
ILHK 080220Z AUTO 30009KT CAVOK 03/M00 Q1024=
ILIK 080230Z AUTO 27002KT CAVOK M01/M02 Q1024=
ILJY 080220Z AUTO 29005KT CAVOK 01/M02 Q1020=
ILKA 080220Z AUTO 21005KT CAVOK M02/M03 Q1021=
ILKM 080220Z AUTO 24009KT CAVOK M00/M03 Q1008=
ILMI 080220Z AUTO 30006KT CAVOK 01/00 Q1020=
ILPR 080220Z AUTO 29008KT CAVOK 03/02 Q1022=
ILPU 080220Z AUTO 19005KT CAVOK M02/M02 Q1013=
ILQA 080230Z AUTO 19007KT CAVOK 00/M02 Q1008=
ILQB 080220Z AUTO 22011KT CAVOK 02/M03 Q1002=
ILQC 080220Z AUTO 22010KT CAVOK M00/M05 Q1004=
ILQD 080220Z AUTO /////KT CAVOK 00/M04 Q////=
ILQE 080220Z AUTO 14004KT CAVOK 03/M02 Q1009=
ILQH 080220Z AUTO 20012KT CAVOK 01/M00 Q1015=
ILQI 080220Z AUTO 24015G26KT //// // NCD 00/M04 Q1003=
ILQJ 080220Z AUTO 24019KT CAVOK M00/M01 Q1013=
ILQK 080220Z AUTO 24022KT 9999 ////// M02/M05 Q1002=
ILQL 080220Z AUTO 21010KT 9999 ////// 02/M02 Q1015=
ILQM 080220Z AUTO 22008KT CAVOK M00/M04 Q////=
ILQN 080220Z AUTO 33014KT 7000 -SHSN OVC031 M01/M03 Q1000=
ILQO 080220Z AUTO 21004KT CAVOK 01/M03 Q1007=
ILQP 080220Z AUTO 20020KT 9999 //////CB 01/M00 Q1016=
ILQQ 080220Z AUTO 24006KT CAVOK 02/M01 Q1012=
ILQR 080220Z AUTO 24009KT CAVOK 00/M03 Q1010=
ILQS 080220Z AUTO 29004KT 9000 NCD M03/M03 Q1013=
ILQT 080220Z AUTO 19006KT CAVOK M03/M06 Q1002=
ILQU 080220Z AUTO 25005KT CAVOK 00/M04 Q0999=
ILQV 080220Z AUTO 22004KT CAVOK M01/M04 Q1004=
ILQX 080220Z AUTO 21006KT CAVOK 01/M02 Q1015=
ILQY 080220Z AUTO 24005KT CAVOK M01/M03 Q1016=
ILRO 080220Z AUTO /////KT 9999 ////// M01/M03 Q////=
ILRU 080220Z AUTO 18006KT CAVOK M04/M04 Q1011=
ILWA 080220Z AUTO 30012KT CAVOK 04/02 Q1021=
ILWD 080220Z AUTO /////KT //// // NCD M01/M01 Q////=
ILWE 080220Z AUTO 23012KT CAVOK 00/M04 Q1002=
ILWF 080220Z AUTO 20005KT CAVOK M03/M03 Q////=
ILWG 080230Z AUTO /////KT CAVOK M01/M02 Q1022=
ILXA 080220Z AUTO /////KT CAVOK M01/M02 Q1021=
ILXB 080220Z AUTO 20003KT CAVOK M00/M02 Q1024=
ILXC 080220Z AUTO 30009KT CAVOK 02/M00 Q1019=
ILXD 080230Z AUTO /////KT CAVOK 01/M01 Q1017=
ILXE 080220Z AUTO 25005KT CAVOK M01/M03 Q1017=
ILXF 080220Z AUTO 24014KT CAVOK 03/02 Q1025=
ILXG 080230Z AUTO 20013KT CAVOK 02/01 Q1022=
ILXI 080220Z AUTO 30004KT CAVOK 01/M00 Q1015=
ILXJ 080220Z AUTO 26006KT CAVOK M01/M03 Q1016=
ILXK 080220Z AUTO 24003KT 9999 FEW005 M01/M02 Q1014=
ILXL 080220Z AUTO /////KT 9999 //////CB M02/M03 Q1020=
ILXM 080220Z AUTO /////KT CAVOK M01/M02 Q////=
ILXN 080220Z AUTO 20003KT 9999 //////CB M01/M02 Q1023=
ILXO 080220Z AUTO 17005KT CAVOK M02/M02 Q1022=
ILXP 080220Z AUTO 23010KT CAVOK 04/01 Q1024=
ILXQ 080220Z AUTO /////KT CAVOK 02/00 Q////=
ILXR 080220Z AUTO 00000KT CAVOK M02/M03 Q1017=
ILXS 080220Z AUTO 29005KT CAVOK 00/M02 Q1016=
ILXT 080220Z AUTO 23019KT CAVOK 03/M01 Q1018=
ILXU 080220Z AUTO /////KT CAVOK 02/01 Q1017=
ILXV 080220Z AUTO 26004KT CAVOK 00/M01 Q1019=
ILXW 080220Z AUTO 23005KT CAVOK M02/M04 Q1018=
ILXX 080230Z AUTO 21010KT CAVOK 04/M01 Q1020=
ILXY 080220Z AUTO 35004KT CAVOK 01/M01 Q1018=
ILXZ 080220Z AUTO 31009KT CAVOK 02/01 Q////=
ILYL 080220Z AUTO 25005KT CAVOK 01/M03 Q1018=
ILZA 080220Z AUTO 30016KT CAVOK 04/01 Q1024=
ILZB 080220Z AUTO 23005KT CAVOK 01/M00 Q1026=
ILZC 080220Z AUTO /////KT CAVOK 03/01 Q1019=
ILZD 080220Z AUTO 28009KT CAVOK 03/00 Q1024=
ILZE 080220Z AUTO 31010KT CAVOK 04/00 Q1024=
ILZF 080220Z AUTO 29007KT CAVOK 01/M00 Q1024=
ILZG 080220Z AUTO /////KT CAVOK 01/M00 Q1024=
ILZH 080220Z AUTO /////KT CAVOK M00/M02 Q1023=
ILZI 080220Z AUTO 24012KT CAVOK 03/01 Q1025=
ILZJ 080220Z AUTO 26004KT CAVOK 00/M01 Q1024=
ILZK 080220Z AUTO 22007KT CAVOK 04/00 Q1026=
ILZL 080220Z AUTO 30008KT CAVOK 02/M01 Q1023=
ILZM 080220Z AUTO /////KT CAVOK 02/M00 Q1024=
ILZO 080230Z AUTO 31019KT CAVOK 04/02 Q1021=
ILZP 080230Z AUTO 23003KT CAVOK M01/M02 Q1024=
ILZQ 080220Z AUTO 31004KT CAVOK 02/M00 Q1023=
ILZR 080220Z AUTO 00000KT CAVOK M00/M01 Q1026=
ILZS 080220Z AUTO 33009KT CAVOK 03/M00 Q1025=
ILZT 080220Z AUTO 31010KT CAVOK 03/00 Q1025=
ILZU 080220Z AUTO 27009KT CAVOK 04/02 Q1027=
ILZV 080220Z AUTO 32006KT CAVOK 03/01 Q1023=
ILZW 080230Z AUTO 32020KT CAVOK 05/02 Q1022=
ILZX 080220Z AUTO 30008KT CAVOK 04/00 Q1024=
ILZY 080220Z AUTO 24011KT CAVOK 04/02 Q1026=
ILZZ 080220Z AUTO /////KT CAVOK 02/00 Q1022=